Time;durP1;ratioP1;P1;durP2;ratioP2;P2;SDS_P1;SDS_P2;PMS_P1;PMS_P2;Temp;Humidity;BMP_temperature;BMP_pressure;BME280_temperature;BME280_humidity;BME280_pressure;Samples;Min_cycle;Max_cycle;Signal;HPM_P1;HPM_P2
2023/02/02 00:02:03;;;;;;;;;;;30.90;97.90;;;;;;5053959;28;19958;-75
2023/02/02 00:04:31;;;;;;;;;;;31.00;97.70;;;;;;5054312;28;19991;-71
2023/02/02 00:06:58;;;;;;;;;;;31.30;98.00;;;;;;5052152;28;19913;-71
2023/02/02 00:09:29;;;;;;;;;;;31.50;97.50;;;;;;5050033;28;19936;-73
2023/02/02 00:11:56;;;;;;;;;;;31.30;96.60;;;;;;5050644;28;20267;-72
2023/02/02 00:14:23;;;;;;;;;;;31.20;96.40;;;;;;5054971;28;19908;-72
2023/02/02 00:16:51;;;;;;;;;;;31.30;97.00;;;;;;5051824;28;19966;-72
2023/02/02 00:19:20;;;;;;;;;;;31.50;96.40;;;;;;5050021;28;19909;-71
2023/02/02 00:21:47;;;;;;;;;;;31.10;96.50;;;;;;5053940;28;19915;-73
2023/02/02 00:24:14;;;;;;;;;;;30.70;96.90;;;;;;5048512;28;19917;-71
2023/02/02 00:26:42;;;;;;;;;;;30.80;97.10;;;;;;5049650;28;20346;-73
2023/02/02 00:29:13;;;;;;;;;;;31.00;96.70;;;;;;5041173;28;19920;-73
2023/02/02 00:31:39;;;;;;;;;;;31.20;96.80;;;;;;5049420;28;19913;-71
2023/02/02 00:34:06;;;;;;;;;;;31.50;96.10;;;;;;5046508;28;20286;-71
2023/02/02 00:36:33;;;;;;;;;;;31.80;96.10;;;;;;5050304;28;19955;-71
2023/02/02 00:38:59;;;;;;;;;;;31.80;95.60;;;;;;5050767;28;19966;-72
2023/02/02 00:41:26;;;;;;;;;;;31.90;95.90;;;;;;5052193;28;19909;-72
2023/02/02 00:46:41;;;;;;;;;;;32.00;95.80;;;;;;5055145;28;19962;-74
2023/02/02 00:49:08;;;;;;;;;;;32.00;95.40;;;;;;5054499;28;19919;-74
2023/02/02 00:51:38;;;;;;;;;;;31.70;95.70;;;;;;5052191;28;19991;-72
2023/02/02 00:54:05;;;;;;;;;;;31.60;95.60;;;;;;5054322;28;19908;-73
2023/02/02 00:56:31;;;;;;;;;;;31.50;95.50;;;;;;5052045;28;19923;-73
2023/02/02 00:58:58;;;;;;;;;;;31.50;95.60;;;;;;5050070;28;19916;-73
2023/02/02 01:01:25;;;;;;;;;;;31.60;95.40;;;;;;5047764;28;19944;-74
2023/02/02 01:03:52;;;;;;;;;;;31.70;95.20;;;;;;5051064;28;19963;-74
2023/02/02 01:06:19;;;;;;;;;;;31.70;95.10;;;;;;5049445;28;19909;-70
2023/02/02 01:08:46;;;;;;;;;;;32.00;95.00;;;;;;5047547;28;19912;-73
2023/02/02 01:11:13;;;;;;;;;;;32.00;95.50;;;;;;5054116;28;19920;-71
2023/02/02 01:13:40;;;;;;;;;;;32.00;95.40;;;;;;5051397;28;19916;-72
2023/02/02 01:16:06;;;;;;;;;;;32.20;95.40;;;;;;5050361;28;20019;-72
2023/02/02 01:18:33;;;;;;;;;;;32.00;95.00;;;;;;5053057;28;19926;-72
2023/02/02 01:21:01;;;;;;;;;;;32.20;95.40;;;;;;5045870;28;20267;-73
2023/02/02 01:23:28;;;;;;;;;;;32.50;95.10;;;;;;5050242;28;19963;-74
2023/02/02 01:25:59;;;;;;;;;;;32.70;94.90;;;;;;5047525;28;19917;-73
2023/02/02 01:28:26;;;;;;;;;;;32.80;93.40;;;;;;5050548;28;19908;-74
2023/02/02 01:30:53;;;;;;;;;;;32.90;93.90;;;;;;5053608;28;19915;-73
2023/02/02 01:33:20;;;;;;;;;;;33.10;94.20;;;;;;5051780;28;19913;-74
2023/02/02 01:35:47;;;;;;;;;;;33.30;93.40;;;;;;5049864;28;19932;-72
2023/02/02 01:38:14;;;;;;;;;;;33.40;93.30;;;;;;5044742;28;19966;-73
2023/02/02 01:40:48;;;;;;;;;;;33.40;93.60;;;;;;5044537;28;19996;-72
2023/02/02 01:43:27;;;;;;;;;;;33.60;92.90;;;;;;5046303;28;19925;-72
2023/02/02 01:45:55;;;;;;;;;;;33.60;93.10;;;;;;5047009;28;19961;-72
2023/02/02 01:48:24;;;;;;;;;;;33.60;93.50;;;;;;5046594;28;19932;-73
2023/02/02 01:50:52;;;;;;;;;;;33.70;92.50;;;;;;5046611;28;19963;-72
2023/02/02 01:53:22;;;;;;;;;;;33.80;92.80;;;;;;5049606;28;20017;-72
2023/02/02 01:55:49;;;;;;;;;;;33.90;91.40;;;;;;5048785;28;19994;-74
2023/02/02 01:58:16;;;;;;;;;;;33.80;92.30;;;;;;5043793;28;19951;-72
2023/02/02 02:00:46;;;;;;;;;;;33.90;91.80;;;;;;5050903;28;20000;-72
2023/02/02 02:03:17;;;;;;;;;;;33.80;92.20;;;;;;5048177;28;19921;-73
2023/02/02 02:05:46;;;;;;;;;;;33.90;92.60;;;;;;5049761;28;19934;-72
2023/02/02 02:08:34;;;;;;;;;;;34.10;91.10;;;;;;5049301;28;19935;-73
2023/02/02 02:11:01;;;;;;;;;;;34.00;91.20;;;;;;5046447;28;20330;-73
2023/02/02 02:16:33;;;;;;;;;;;34.00;90.90;;;;;;5052455;28;19962;-73
2023/02/02 02:19:09;;;;;;;;;;;34.00;91.90;;;;;;5045281;28;19955;-73
2023/02/02 02:27:38;;;;;;;;;;;34.50;90.90;;;;;;5032158;28;19904;-72
2023/02/02 02:30:22;;;;;;;;;;;34.70;90.40;;;;;;5052593;28;20004;-72
2023/02/02 02:32:57;;;;;;;;;;;34.60;90.90;;;;;;5049159;28;20279;-72
2023/02/02 02:35:33;;;;;;;;;;;34.60;90.50;;;;;;5050137;28;19912;-72
2023/02/02 02:38:04;;;;;;;;;;;34.60;90.60;;;;;;5051088;28;19909;-71
2023/02/02 02:40:35;;;;;;;;;;;34.70;90.90;;;;;;5048070;28;19915;-72
2023/02/02 02:43:04;;;;;;;;;;;34.90;90.20;;;;;;5042519;28;19920;-72
2023/02/02 02:45:31;;;;;;;;;;;35.00;90.40;;;;;;5041736;28;19999;-70
2023/02/02 02:47:59;;;;;;;;;;;35.10;89.00;;;;;;5052857;28;20156;-71
2023/02/02 02:50:25;;;;;;;;;;;35.20;87.60;;;;;;5053306;28;19909;-71
2023/02/02 02:52:57;;;;;;;;;;;35.20;88.60;;;;;;5053384;28;19941;-73
2023/02/02 02:55:25;;;;;;;;;;;35.40;87.30;;;;;;5053346;28;19913;-71
2023/02/02 02:57:54;;;;;;;;;;;35.50;86.80;;;;;;5050962;28;20322;-73
2023/02/02 03:00:47;;;;;;;;;;;35.50;87.80;;;;;;5052324;28;19909;-71
2023/02/02 03:03:14;;;;;;;;;;;35.70;87.30;;;;;;5023144;28;19917;-72
2023/02/02 03:06:03;;;;;;;;;;;35.70;86.90;;;;;;5033560;28;19905;-75
2023/02/02 03:08:30;;;;;;;;;;;35.90;86.80;;;;;;5041480;28;19916;-72
2023/02/02 03:10:58;;;;;;;;;;;36.00;84.60;;;;;;5052912;28;19931;-73
2023/02/02 03:13:25;;;;;;;;;;;36.20;84.20;;;;;;5052868;28;19909;-72
2023/02/02 03:15:53;;;;;;;;;;;36.10;85.60;;;;;;5052599;28;19920;-72
2023/02/02 03:18:21;;;;;;;;;;;35.90;84.90;;;;;;5066699;28;20417;-72
2023/02/02 03:20:47;;;;;;;;;;;36.00;85.60;;;;;;5050750;28;19905;-72
2023/02/02 03:23:14;;;;;;;;;;;36.00;83.20;;;;;;5042278;28;19967;-74
2023/02/02 03:25:41;;;;;;;;;;;36.00;82.60;;;;;;5045975;28;19963;-72
2023/02/02 03:28:08;;;;;;;;;;;36.00;82.00;;;;;;5050477;28;19965;-72
2023/02/02 03:30:35;;;;;;;;;;;36.10;80.30;;;;;;5051261;28;19905;-73
2023/02/02 03:33:02;;;;;;;;;;;36.10;81.90;;;;;;5052871;28;19904;-71
2023/02/02 03:35:29;;;;;;;;;;;36.10;80.20;;;;;;5050862;28;19947;-73
2023/02/02 03:37:56;;;;;;;;;;;36.40;80.10;;;;;;5052528;28;20325;-71
2023/02/02 03:40:23;;;;;;;;;;;36.60;80.00;;;;;;5052293;28;20002;-72
2023/02/02 03:42:50;;;;;;;;;;;36.60;81.30;;;;;;5060752;28;19920;-73
2023/02/02 03:45:17;;;;;;;;;;;36.50;81.10;;;;;;5072593;28;19957;-71
2023/02/02 03:47:43;;;;;;;;;;;36.40;80.90;;;;;;5052931;28;20124;-74
2023/02/02 03:50:10;;;;;;;;;;;36.50;79.60;;;;;;5050833;28;19993;-71
2023/02/02 03:52:37;;;;;;;;;;;36.60;76.80;;;;;;5052121;28;19951;-74
2023/02/02 03:55:04;;;;;;;;;;;36.70;79.00;;;;;;5052679;28;19913;-73
2023/02/02 03:57:31;;;;;;;;;;;36.90;75.60;;;;;;5051861;28;19958;-73
2023/02/02 03:59:58;;;;;;;;;;;36.80;75.30;;;;;;5051363;28;19905;-74
2023/02/02 04:02:24;;;;;;;;;;;36.60;75.70;;;;;;5070581;28;19923;-75
2023/02/02 04:04:51;;;;;;;;;;;36.60;77.90;;;;;;5066863;28;19909;-74
2023/02/02 04:07:18;;;;;;;;;;;36.70;75.60;;;;;;5052484;28;20397;-75
2023/02/02 04:09:44;;;;;;;;;;;36.60;72.20;;;;;;5050019;28;19955;-75
2023/02/02 04:12:11;;;;;;;;;;;36.60;72.20;;;;;;5046340;28;20301;-77
2023/02/02 04:14:38;;;;;;;;;;;36.60;70.50;;;;;;5040021;28;19962;-73
2023/02/02 04:17:05;;;;;;;;;;;36.60;68.30;;;;;;5035155;28;19905;-72
2023/02/02 04:19:31;;;;;;;;;;;36.70;66.30;;;;;;5048083;28;19913;-70
2023/02/02 04:21:58;;;;;;;;;;;36.80;65.40;;;;;;5051421;28;19962;-72
2023/02/02 04:24:26;;;;;;;;;;;36.70;65.00;;;;;;5052285;28;19913;-72
2023/02/02 04:26:53;;;;;;;;;;;36.60;64.70;;;;;;5048861;28;19982;-72
2023/02/02 04:29:20;;;;;;;;;;;36.80;65.50;;;;;;5065947;28;20313;-72
2023/02/02 04:31:46;;;;;;;;;;;36.90;65.20;;;;;;5063841;28;20029;-76
2023/02/02 04:34:13;;;;;;;;;;;37.00;64.30;;;;;;5082144;28;19986;-74
2023/02/02 04:36:40;;;;;;;;;;;36.80;63.80;;;;;;5056342;28;19916;-75
2023/02/02 04:39:06;;;;;;;;;;;36.70;63.70;;;;;;5046395;28;19915;-75
2023/02/02 04:41:33;;;;;;;;;;;36.80;63.70;;;;;;5052779;28;20413;-75
2023/02/02 04:44:00;;;;;;;;;;;36.70;64.10;;;;;;5059148;28;19916;-74
2023/02/02 04:46:27;;;;;;;;;;;36.60;62.90;;;;;;5052721;28;19912;-73
2023/02/02 04:48:54;;;;;;;;;;;36.30;63.00;;;;;;5072325;28;19912;-72
2023/02/02 04:51:20;;;;;;;;;;;35.90;64.20;;;;;;5060629;28;20024;-73
2023/02/02 04:53:47;;;;;;;;;;;36.10;63.80;;;;;;5063038;28;19908;-72
2023/02/02 04:56:15;;;;;;;;;;;36.20;64.30;;;;;;5047959;28;19966;-74
2023/02/02 04:58:42;;;;;;;;;;;36.00;63.40;;;;;;5049308;28;19908;-77
2023/02/02 05:01:14;;;;;;;;;;;36.20;63.80;;;;;;5044715;28;19917;-73
2023/02/02 05:03:41;;;;;;;;;;;36.40;65.10;;;;;;5056435;28;20004;-74
2023/02/02 05:06:08;;;;;;;;;;;36.80;64.30;;;;;;5039677;28;20330;-71
2023/02/02 05:08:35;;;;;;;;;;;36.90;63.90;;;;;;5050434;28;19970;-70
2023/02/02 05:11:11;;;;;;;;;;;36.60;62.40;;;;;;5048601;28;19915;-74
2023/02/02 05:13:38;;;;;;;;;;;36.50;62.60;;;;;;5057272;28;19912;-72
2023/02/02 05:16:06;;;;;;;;;;;36.60;63.30;;;;;;5046601;28;19919;-71
2023/02/02 05:18:33;;;;;;;;;;;36.90;63.10;;;;;;5046684;28;20003;-71
2023/02/02 05:21:00;;;;;;;;;;;37.00;62.10;;;;;;5048485;28;19920;-71
2023/02/02 05:23:27;;;;;;;;;;;36.80;62.40;;;;;;5046375;28;19931;-73
2023/02/02 05:25:54;;;;;;;;;;;36.60;61.80;;;;;;5052266;28;19912;-71
2023/02/02 05:28:24;;;;;;;;;;;36.10;61.40;;;;;;5046930;28;19958;-72
2023/02/02 05:30:51;;;;;;;;;;;36.20;62.20;;;;;;5045480;28;20352;-69
2023/02/02 05:33:18;;;;;;;;;;;36.20;60.80;;;;;;5051766;28;19916;-71
2023/02/02 05:35:45;;;;;;;;;;;36.00;61.10;;;;;;5053129;28;19921;-72
2023/02/02 05:38:13;;;;;;;;;;;35.50;60.90;;;;;;5059575;28;19935;-71
2023/02/02 05:40:39;;;;;;;;;;;35.30;61.60;;;;;;5057699;28;19978;-71
2023/02/02 05:43:06;;;;;;;;;;;35.10;61.30;;;;;;5067612;28;19916;-71
2023/02/02 05:45:33;;;;;;;;;;;35.30;61.50;;;;;;5059873;28;20014;-71
2023/02/02 05:48:02;;;;;;;;;;;35.70;61.30;;;;;;5055260;28;19920;-70
2023/02/02 05:50:29;;;;;;;;;;;35.80;61.10;;;;;;5057940;28;19948;-71
2023/02/02 05:52:56;;;;;;;;;;;35.80;61.40;;;;;;5057683;28;19909;-73
2023/02/02 05:55:22;;;;;;;;;;;35.60;61.40;;;;;;5071733;28;20400;-73
2023/02/02 05:57:49;;;;;;;;;;;35.60;61.20;;;;;;5055577;28;19909;-71
2023/02/02 06:00:16;;;;;;;;;;;35.90;62.30;;;;;;5065255;28;19908;-72
2023/02/02 06:02:42;;;;;;;;;;;35.80;62.00;;;;;;5068175;28;19924;-73
2023/02/02 06:05:09;;;;;;;;;;;35.80;62.30;;;;;;5058222;28;19995;-71
2023/02/02 06:07:36;;;;;;;;;;;35.80;62.60;;;;;;5061332;28;19905;-71
2023/02/02 06:10:02;;;;;;;;;;;35.80;62.50;;;;;;5067536;28;19912;-72
2023/02/02 06:12:30;;;;;;;;;;;35.70;62.20;;;;;;5061655;28;19916;-71
2023/02/02 06:14:57;;;;;;;;;;;35.50;62.00;;;;;;5061083;28;19992;-71
2023/02/02 06:17:24;;;;;;;;;;;35.60;62.20;;;;;;5057314;28;19919;-71
2023/02/02 06:19:50;;;;;;;;;;;35.60;62.70;;;;;;5067160;28;19917;-71
2023/02/02 06:22:17;;;;;;;;;;;35.70;62.60;;;;;;5062550;28;19974;-72
2023/02/02 06:24:44;;;;;;;;;;;35.80;61.70;;;;;;5068677;28;19913;-71
2023/02/02 06:27:10;;;;;;;;;;;35.80;62.00;;;;;;5062455;28;19966;-72
2023/02/02 06:29:37;;;;;;;;;;;35.70;62.30;;;;;;5070775;28;19909;-73
2023/02/02 06:32:04;;;;;;;;;;;35.40;61.70;;;;;;5054489;28;19923;-70
2023/02/02 06:34:31;;;;;;;;;;;35.00;62.20;;;;;;5053337;28;19912;-71
2023/02/02 06:36:57;;;;;;;;;;;34.80;62.60;;;;;;5049654;28;19923;-71
2023/02/02 06:39:24;;;;;;;;;;;34.70;62.20;;;;;;5054470;28;19969;-71
2023/02/02 06:41:51;;;;;;;;;;;34.80;62.00;;;;;;5053828;28;19908;-72
2023/02/02 06:44:20;;;;;;;;;;;34.90;62.20;;;;;;5055275;28;19936;-73
2023/02/02 06:46:47;;;;;;;;;;;35.00;62.40;;;;;;5052187;28;20010;-70
2023/02/02 06:49:14;;;;;;;;;;;35.10;62.40;;;;;;5053143;28;20011;-70
2023/02/02 06:51:41;;;;;;;;;;;35.20;62.40;;;;;;5051884;28;19919;-72
2023/02/02 06:54:08;;;;;;;;;;;35.30;62.30;;;;;;5053295;28;19966;-69
2023/02/02 06:56:35;;;;;;;;;;;35.30;62.80;;;;;;5049338;28;20283;-71
2023/02/02 06:59:01;;;;;;;;;;;35.40;63.10;;;;;;5053654;28;19920;-70
2023/02/02 07:01:28;;;;;;;;;;;35.60;62.30;;;;;;5051819;28;19915;-71
2023/02/02 07:03:55;;;;;;;;;;;35.50;61.80;;;;;;5057796;28;19917;-72
2023/02/02 07:06:23;;;;;;;;;;;35.50;61.90;;;;;;5062555;28;19909;-71
2023/02/02 07:08:50;;;;;;;;;;;35.30;62.20;;;;;;5053127;28;20294;-71
2023/02/02 07:11:17;;;;;;;;;;;35.30;62.60;;;;;;5052472;28;19913;-71
2023/02/02 07:13:47;;;;;;;;;;;35.20;62.40;;;;;;5066624;28;19909;-71
2023/02/02 07:16:15;;;;;;;;;;;35.00;62.40;;;;;;5052986;28;19916;-71
2023/02/02 07:18:42;;;;;;;;;;;34.90;62.90;;;;;;5052803;28;20328;-70
2023/02/02 07:21:14;;;;;;;;;;;34.80;63.20;;;;;;5053700;28;20604;-72
2023/02/02 07:23:41;;;;;;;;;;;34.80;62.80;;;;;;5059960;28;19962;-71
2023/02/02 07:26:08;;;;;;;;;;;34.70;63.00;;;;;;5059743;28;19919;-71
